createdAt,value
2023-04-22T00:00:31.044Z,5.65
2023-04-22T00:05:27.992Z,6.13
2023-04-22T00:10:24.971Z,6.10
2023-04-22T00:15:21.712Z,6.20
2023-04-22T00:20:21.244Z,5.35
2023-04-22T00:25:18.312Z,6.25
2023-04-22T00:30:15.314Z,6.15
2023-04-22T00:35:12.140Z,6.00
2023-04-22T00:40:10.636Z,5.90
2023-04-22T00:45:11.621Z,6.25
2023-04-22T00:50:08.930Z,5.93
2023-04-22T00:55:06.619Z,5.65
2023-04-22T01:00:05.637Z,5.40
2023-04-22T01:05:03.353Z,5.43
2023-04-22T01:10:00.434Z,5.25
2023-04-22T01:14:57.344Z,5.38
2023-04-22T01:19:55.119Z,5.40
2023-04-22T01:24:53.049Z,6.10
2023-04-22T01:29:51.649Z,5.80
2023-04-22T01:34:48.734Z,5.47
2023-04-22T01:39:47.419Z,5.20
2023-04-22T01:44:44.955Z,6.90
2023-04-22T01:49:42.353Z,5.15
2023-04-22T01:54:39.418Z,5.68
2023-04-22T01:59:36.139Z,6.55
2023-04-22T02:04:33.675Z,6.50
2023-04-22T02:09:30.480Z,5.95
2023-04-22T02:14:27.214Z,5.53
2023-04-22T02:19:24.085Z,6.15
2023-04-22T02:24:21.635Z,5.82
2023-04-22T02:29:18.411Z,6.15
2023-04-22T02:34:15.269Z,7.43
2023-04-22T02:39:12.208Z,5.93
2023-04-22T02:44:09.776Z,6.80
2023-04-22T02:49:06.861Z,6.70
2023-04-22T02:54:03.835Z,5.90
2023-04-22T02:59:00.648Z,6.38
2023-04-22T03:03:58.386Z,5.78
2023-04-22T03:08:55.844Z,6.53
2023-04-22T03:13:52.646Z,6.57
2023-04-22T03:18:49.576Z,6.57
2023-04-22T03:23:47.046Z,7.70
2023-04-22T03:28:44.093Z,6.95
2023-04-22T03:33:40.972Z,6.88
2023-04-22T03:38:49.326Z,6.57
2023-04-22T03:43:46.379Z,8.80
2023-04-22T03:48:43.580Z,9.35
2023-04-22T03:53:48.780Z,10.60
2023-04-22T03:58:49.782Z,10.13
2023-04-22T04:03:47.090Z,10.52
2023-04-22T04:08:46.102Z,9.68
2023-04-22T04:13:43.943Z,8.95
2023-04-22T04:19:00.120Z,8.48
2023-04-22T04:23:57.545Z,10.38
2023-04-22T04:29:10.047Z,12.05
2023-04-22T04:34:11.013Z,10.95
2023-04-22T04:39:08.112Z,11.82
2023-04-22T04:44:06.696Z,11.75
2023-04-22T04:49:08.915Z,12.75
2023-04-22T04:54:13.572Z,11.75
2023-04-22T04:59:12.719Z,9.73
2023-04-22T05:04:10.911Z,10.95
2023-04-22T05:09:11.562Z,9.30
2023-04-22T05:14:08.365Z,10.07
2023-04-22T05:19:10.285Z,10.23
2023-04-22T05:24:07.996Z,10.13
2023-04-22T05:29:06.587Z,9.77
2023-04-22T05:34:03.579Z,11.32
2023-04-22T05:39:04.219Z,10.07
2023-04-22T05:44:02.997Z,8.90
2023-04-22T05:49:00.708Z,5.90
2023-04-22T05:59:13.455Z,4.57
2023-04-22T06:04:11.373Z,5.10
2023-04-22T06:09:11.912Z,4.70
2023-04-22T06:14:12.522Z,4.85
2023-04-22T06:19:11.199Z,6.00
2023-04-22T06:24:09.745Z,7.18
2023-04-22T06:29:06.603Z,10.98
2023-04-22T06:34:05.545Z,11.70
2023-04-22T06:39:03.552Z,8.00
2023-04-22T06:44:06.926Z,6.97
2023-04-22T06:49:37.984Z,7.18
2023-04-22T06:55:10.677Z,6.05
2023-04-22T07:00:09.258Z,5.47
2023-04-22T07:05:10.101Z,4.63
2023-04-22T07:10:08.592Z,5.95
2023-04-22T07:15:13.019Z,4.90
2023-04-22T07:20:11.616Z,4.65
2023-04-22T07:25:09.487Z,5.85
2023-04-22T07:30:08.487Z,5.32
2023-04-22T07:35:06.263Z,4.82
2023-04-22T07:40:05.395Z,5.75
2023-04-22T07:45:02.159Z,4.68
2023-04-22T07:49:59.381Z,6.28
2023-04-22T07:54:56.269Z,5.47
2023-04-22T07:59:53.778Z,5.60
2023-04-22T08:04:50.780Z,5.78
2023-04-22T08:09:47.676Z,5.82
2023-04-22T08:14:44.418Z,5.13
2023-04-22T08:19:42.169Z,5.20
2023-04-22T08:24:39.111Z,4.88
2023-04-22T08:29:36.990Z,6.22
2023-04-22T08:34:33.963Z,4.30
2023-04-22T08:39:31.481Z,3.88
2023-04-22T08:44:29.471Z,4.70
2023-04-22T08:49:27.300Z,4.63
2023-04-22T08:54:24.302Z,3.65
2023-04-22T08:59:22.779Z,4.82
2023-04-22T09:04:20.121Z,4.43
2023-04-22T09:09:17.218Z,4.68
2023-04-22T09:14:14.064Z,6.05
2023-04-22T09:19:14.924Z,5.20
2023-04-22T09:24:12.352Z,5.22
2023-04-22T09:29:14.908Z,4.65
2023-04-22T09:34:11.784Z,4.47
2023-04-22T09:39:09.424Z,4.80
2023-04-22T09:44:11.407Z,3.92
2023-04-22T09:49:08.319Z,4.32
2023-04-22T09:54:09.322Z,4.10
2023-04-22T09:59:09.816Z,4.32
2023-04-22T10:04:07.536Z,3.97
2023-04-22T10:09:05.477Z,4.05
2023-04-22T10:14:03.817Z,3.75
2023-04-22T10:19:04.273Z,3.90
2023-04-22T10:24:01.299Z,4.47
2023-04-22T10:28:58.249Z,3.83
2023-04-22T10:34:09.952Z,4.35
2023-04-22T10:39:17.412Z,5.18
2023-04-22T10:44:14.292Z,4.53
2023-04-22T10:49:13.370Z,4.35
2023-04-22T10:54:54.355Z,4.20
2023-04-22T10:59:53.864Z,3.95
2023-04-22T11:04:53.003Z,4.63
2023-04-22T11:09:51.662Z,4.88
2023-04-22T11:14:50.110Z,4.53
2023-04-22T11:19:47.414Z,6.28
2023-04-22T11:24:54.426Z,3.95
2023-04-22T11:30:00.506Z,4.10
2023-04-22T11:34:58.108Z,4.78
2023-04-22T11:44:58.886Z,4.07
2023-04-22T11:49:56.749Z,4.40
2023-04-22T11:54:53.483Z,4.45
2023-04-22T12:00:00.108Z,3.17
2023-04-22T12:04:59.082Z,3.90
2023-04-22T12:09:56.161Z,4.82
2023-04-22T12:14:52.938Z,4.18
2023-04-22T12:19:54.992Z,3.30
2023-04-22T12:24:51.685Z,3.28
2023-04-22T12:29:52.863Z,4.32
2023-04-22T12:34:50.364Z,3.60
2023-04-22T12:39:48.716Z,3.63
2023-04-22T12:44:46.311Z,3.30
2023-04-22T12:49:46.417Z,4.18
2023-04-22T12:54:44.662Z,3.85
2023-04-22T12:59:52.355Z,4.80
2023-04-22T13:04:49.726Z,6.72
2023-04-22T13:09:47.043Z,3.83
2023-04-22T13:14:45.440Z,3.13
2023-04-22T13:19:42.413Z,3.75
2023-04-22T13:24:39.423Z,2.88
2023-04-22T13:29:37.286Z,3.63
2023-04-22T13:34:35.362Z,3.47
2023-04-22T13:39:33.030Z,3.60
2023-04-22T13:44:30.659Z,3.80
2023-04-22T13:49:29.792Z,2.75
2023-04-22T13:54:28.238Z,3.15
2023-04-22T13:59:26.744Z,3.35
2023-04-22T14:04:25.030Z,2.70
2023-04-22T14:09:22.725Z,3.30
2023-04-22T14:14:20.473Z,2.90
2023-04-22T14:19:17.360Z,3.15
2023-04-22T14:24:15.166Z,2.63
2023-04-22T14:29:18.780Z,2.97
2023-04-22T14:34:16.592Z,2.95
2023-04-22T14:39:13.439Z,3.65
2023-04-22T14:44:10.746Z,3.38
2023-04-22T14:49:07.702Z,2.70
2023-04-22T14:54:41.380Z,3.30
2023-04-22T14:59:38.427Z,2.90
2023-04-22T15:04:35.499Z,2.97
2023-04-22T15:09:33.000Z,3.00
2023-04-22T15:14:29.814Z,2.92
2023-04-22T15:19:26.901Z,2.45
2023-04-22T15:24:24.629Z,2.78
2023-04-22T15:29:23.064Z,3.53
2023-04-22T15:34:20.901Z,2.40
2023-04-22T15:39:17.855Z,3.15
2023-04-22T15:44:15.585Z,3.20
2023-04-22T15:49:14.177Z,3.67
2023-04-22T15:54:11.961Z,3.65
2023-04-22T15:59:08.955Z,2.95
2023-04-22T16:04:06.117Z,3.72
2023-04-22T16:09:04.391Z,2.97
2023-04-22T16:14:04.140Z,4.30
2023-04-22T16:19:01.089Z,4.05
2023-04-22T16:23:58.142Z,4.13
2023-04-22T16:28:55.830Z,4.07
2023-04-22T16:33:52.673Z,3.80
2023-04-22T16:38:51.783Z,4.05
2023-04-22T16:43:48.641Z,3.42
2023-04-22T16:48:46.117Z,3.20
2023-04-22T16:53:43.285Z,4.00
2023-04-22T16:58:43.740Z,3.95
2023-04-22T17:03:41.106Z,3.17
2023-04-22T17:08:38.780Z,4.38
2023-04-22T17:13:36.752Z,3.85
2023-04-22T17:18:33.723Z,4.57
2023-04-22T17:23:30.579Z,3.55
2023-04-22T17:28:28.126Z,4.07
2023-04-22T17:33:26.903Z,3.80
2023-04-22T17:38:23.861Z,3.95
2023-04-22T17:43:20.751Z,4.22
2023-04-22T17:48:18.338Z,4.68
2023-04-22T17:53:15.159Z,4.28
2023-04-22T17:58:15.006Z,4.95
2023-04-22T18:03:12.708Z,4.75
2023-04-22T18:08:13.477Z,6.43
2023-04-22T18:13:10.633Z,4.13
2023-04-22T18:18:07.702Z,4.47
2023-04-22T18:23:04.669Z,4.63
2023-04-22T18:28:02.386Z,4.72
2023-04-22T18:32:59.316Z,6.20
2023-04-22T18:37:56.283Z,5.68
2023-04-22T18:42:53.217Z,3.97
2023-04-22T18:47:50.804Z,4.45
2023-04-22T18:52:47.710Z,4.93
2023-04-22T18:57:44.524Z,4.40
2023-04-22T19:02:42.588Z,5.90
2023-04-22T19:07:47.559Z,5.55
2023-04-22T19:12:44.637Z,5.85
2023-04-22T19:17:42.296Z,5.72
2023-04-22T19:22:39.263Z,4.50
2023-04-22T19:27:37.042Z,4.53
2023-04-22T19:32:34.249Z,5.88
2023-04-22T19:37:31.125Z,5.68
2023-04-22T19:42:28.135Z,6.38
2023-04-22T19:47:26.020Z,5.53
2023-04-22T19:52:24.671Z,6.53
2023-04-22T19:57:22.149Z,6.50
2023-04-22T20:02:19.614Z,6.35
2023-04-22T20:07:19.026Z,5.72
2023-04-22T20:12:15.898Z,5.53
2023-04-22T20:17:13.035Z,5.47
2023-04-22T20:22:10.173Z,6.18
2023-04-22T20:27:07.797Z,5.68
2023-04-22T20:32:05.819Z,5.82
2023-04-22T20:37:03.507Z,5.25
2023-04-22T20:42:01.408Z,5.40
2023-04-22T20:46:58.845Z,7.03
2023-04-22T20:51:55.969Z,5.90
2023-04-22T20:56:53.141Z,5.85
2023-04-22T21:01:51.011Z,5.63
2023-04-22T21:06:50.417Z,6.53
2023-04-22T21:11:47.851Z,7.10
2023-04-22T21:16:52.977Z,6.35
2023-04-22T21:21:54.563Z,6.22
2023-04-22T21:26:51.573Z,5.82
2023-04-22T21:31:57.820Z,6.00
2023-04-22T21:37:06.255Z,5.80
2023-04-22T21:42:06.890Z,6.85
2023-04-22T21:47:04.280Z,6.65
2023-04-22T21:52:01.212Z,7.75
2023-04-22T21:56:58.749Z,6.03
2023-04-22T22:01:55.638Z,6.45
2023-04-22T22:06:52.641Z,6.30
2023-04-22T22:11:49.439Z,6.10
2023-04-22T22:16:49.204Z,5.68
2023-04-22T22:21:46.028Z,6.22
2023-04-22T22:26:43.608Z,6.13
2023-04-22T22:31:40.740Z,6.55
2023-04-22T22:36:38.364Z,6.20
2023-04-22T22:41:35.204Z,6.32
2023-04-22T22:46:32.059Z,6.57
2023-04-22T22:51:29.337Z,6.88
2023-04-22T22:56:27.136Z,6.25
2023-04-22T23:01:24.018Z,5.78
2023-04-22T23:06:21.201Z,6.22
2023-04-22T23:11:18.017Z,6.32
2023-04-22T23:16:15.822Z,6.38
2023-04-22T23:21:13.116Z,5.43
2023-04-22T23:26:10.828Z,5.18
2023-04-22T23:31:09.012Z,4.57
2023-04-22T23:36:09.147Z,5.18
2023-04-22T23:41:05.943Z,5.35
2023-04-22T23:46:02.912Z,6.60
2023-04-22T23:50:59.784Z,6.38
2023-04-22T23:55:57.982Z,6.20
